sensor_id;sensor_type;location;lat;lon;timestamp;P1;durP1;ratioP1;P2;durP2;ratioP2
69463;SDS011;56665;41.106;16.688;2023-06-26T00:02:39;4.97;;;2.97;;
69463;SDS011;56665;41.106;16.688;2023-06-26T00:05:43;5.70;;;2.80;;
69463;SDS011;56665;41.106;16.688;2023-06-26T00:08:46;5.43;;;2.95;;
69463;SDS011;56665;41.106;16.688;2023-06-26T00:11:50;7.28;;;3.38;;
69463;SDS011;56665;41.106;16.688;2023-06-26T00:14:54;6.35;;;2.90;;
69463;SDS011;56665;41.106;16.688;2023-06-26T00:17:58;7.47;;;3.35;;
69463;SDS011;56665;41.106;16.688;2023-06-26T00:21:02;7.68;;;3.03;;
69463;SDS011;56665;41.106;16.688;2023-06-26T00:24:06;6.95;;;3.20;;
69463;SDS011;56665;41.106;16.688;2023-06-26T00:27:10;6.95;;;3.20;;
69463;SDS011;56665;41.106;16.688;2023-06-26T00:30:14;5.78;;;3.05;;
69463;SDS011;56665;41.106;16.688;2023-06-26T00:33:18;6.55;;;3.00;;
69463;SDS011;56665;41.106;16.688;2023-06-26T00:36:21;7.95;;;3.13;;
69463;SDS011;56665;41.106;16.688;2023-06-26T00:39:26;6.15;;;3.22;;
69463;SDS011;56665;41.106;16.688;2023-06-26T00:42:30;6.43;;;2.85;;
69463;SDS011;56665;41.106;16.688;2023-06-26T00:45:36;6.93;;;3.05;;
69463;SDS011;56665;41.106;16.688;2023-06-26T00:48:41;7.00;;;2.88;;
69463;SDS011;56665;41.106;16.688;2023-06-26T00:51:46;5.70;;;2.58;;
69463;SDS011;56665;41.106;16.688;2023-06-26T00:54:50;6.55;;;3.15;;
69463;SDS011;56665;41.106;16.688;2023-06-26T00:57:54;9.50;;;3.53;;
69463;SDS011;56665;41.106;16.688;2023-06-26T01:00:58;6.28;;;3.08;;
69463;SDS011;56665;41.106;16.688;2023-06-26T01:04:04;5.72;;;3.22;;
69463;SDS011;56665;41.106;16.688;2023-06-26T01:07:09;5.20;;;2.83;;
69463;SDS011;56665;41.106;16.688;2023-06-26T01:10:12;5.93;;;2.90;;
69463;SDS011;56665;41.106;16.688;2023-06-26T01:13:16;5.78;;;2.95;;
69463;SDS011;56665;41.106;16.688;2023-06-26T01:16:20;6.25;;;2.88;;
69463;SDS011;56665;41.106;16.688;2023-06-26T01:19:26;5.32;;;3.10;;
69463;SDS011;56665;41.106;16.688;2023-06-26T01:29:22;4.50;;;2.40;;
69463;SDS011;56665;41.106;16.688;2023-06-26T01:32:28;5.15;;;3.13;;
69463;SDS011;56665;41.106;16.688;2023-06-26T01:35:33;7.93;;;3.00;;
69463;SDS011;56665;41.106;16.688;2023-06-26T01:38:37;6.65;;;3.00;;
69463;SDS011;56665;41.106;16.688;2023-06-26T01:41:41;5.82;;;2.72;;
69463;SDS011;56665;41.106;16.688;2023-06-26T01:44:47;4.88;;;2.90;;
69463;SDS011;56665;41.106;16.688;2023-06-26T01:47:52;5.00;;;2.80;;
69463;SDS011;56665;41.106;16.688;2023-06-26T01:50:56;6.45;;;3.20;;
69463;SDS011;56665;41.106;16.688;2023-06-26T01:54:05;5.35;;;2.67;;
69463;SDS011;56665;41.106;16.688;2023-06-26T01:57:18;6.70;;;3.15;;
69463;SDS011;56665;41.106;16.688;2023-06-26T02:00:22;5.43;;;3.00;;
69463;SDS011;56665;41.106;16.688;2023-06-26T02:03:27;7.35;;;3.42;;
69463;SDS011;56665;41.106;16.688;2023-06-26T02:06:31;4.93;;;2.95;;
69463;SDS011;56665;41.106;16.688;2023-06-26T02:09:36;6.78;;;3.22;;
69463;SDS011;56665;41.106;16.688;2023-06-26T02:12:39;5.63;;;3.20;;
69463;SDS011;56665;41.106;16.688;2023-06-26T02:15:43;7.00;;;3.10;;
69463;SDS011;56665;41.106;16.688;2023-06-26T02:18:47;5.05;;;2.78;;
69463;SDS011;56665;41.106;16.688;2023-06-26T02:21:51;9.35;;;3.00;;
69463;SDS011;56665;41.106;16.688;2023-06-26T02:24:54;6.55;;;3.10;;
69463;SDS011;56665;41.106;16.688;2023-06-26T02:27:58;5.65;;;3.35;;
69463;SDS011;56665;41.106;16.688;2023-06-26T02:31:02;7.07;;;3.10;;
69463;SDS011;56665;41.106;16.688;2023-06-26T02:34:06;7.13;;;3.13;;
69463;SDS011;56665;41.106;16.688;2023-06-26T02:37:10;5.28;;;3.00;;
69463;SDS011;56665;41.106;16.688;2023-06-26T02:40:15;7.80;;;3.67;;
69463;SDS011;56665;41.106;16.688;2023-06-26T02:43:19;6.70;;;3.38;;
69463;SDS011;56665;41.106;16.688;2023-06-26T02:46:23;6.70;;;3.22;;
69463;SDS011;56665;41.106;16.688;2023-06-26T02:49:26;6.75;;;3.30;;
69463;SDS011;56665;41.106;16.688;2023-06-26T02:52:33;6.43;;;3.15;;
69463;SDS011;56665;41.106;16.688;2023-06-26T02:55:37;6.03;;;3.00;;
69463;SDS011;56665;41.106;16.688;2023-06-26T02:58:41;6.10;;;3.17;;
69463;SDS011;56665;41.106;16.688;2023-06-26T03:01:45;7.35;;;3.85;;
69463;SDS011;56665;41.106;16.688;2023-06-26T03:04:49;7.32;;;3.55;;
69463;SDS011;56665;41.106;16.688;2023-06-26T03:07:53;6.82;;;3.40;;
69463;SDS011;56665;41.106;16.688;2023-06-26T03:10:57;6.85;;;3.83;;
69463;SDS011;56665;41.106;16.688;2023-06-26T03:14:00;7.03;;;3.80;;
69463;SDS011;56665;41.106;16.688;2023-06-26T03:17:04;10.82;;;3.80;;
69463;SDS011;56665;41.106;16.688;2023-06-26T03:20:11;6.85;;;3.10;;
69463;SDS011;56665;41.106;16.688;2023-06-26T03:23:32;7.57;;;4.10;;
69463;SDS011;56665;41.106;16.688;2023-06-26T03:26:35;7.03;;;3.65;;
69463;SDS011;56665;41.106;16.688;2023-06-26T03:29:39;6.60;;;3.80;;
69463;SDS011;56665;41.106;16.688;2023-06-26T03:32:43;5.45;;;3.58;;
69463;SDS011;56665;41.106;16.688;2023-06-26T03:35:47;10.07;;;4.25;;
69463;SDS011;56665;41.106;16.688;2023-06-26T03:38:51;6.88;;;3.65;;
69463;SDS011;56665;41.106;16.688;2023-06-26T03:42:00;6.57;;;3.78;;
69463;SDS011;56665;41.106;16.688;2023-06-26T03:45:04;7.45;;;4.00;;
69463;SDS011;56665;41.106;16.688;2023-06-26T03:48:10;6.85;;;3.95;;
69463;SDS011;56665;41.106;16.688;2023-06-26T03:51:14;6.43;;;4.10;;
69463;SDS011;56665;41.106;16.688;2023-06-26T03:54:18;6.75;;;4.00;;
69463;SDS011;56665;41.106;16.688;2023-06-26T03:57:21;9.43;;;4.40;;
69463;SDS011;56665;41.106;16.688;2023-06-26T04:00:25;8.30;;;4.35;;
69463;SDS011;56665;41.106;16.688;2023-06-26T04:03:29;8.02;;;5.05;;
69463;SDS011;56665;41.106;16.688;2023-06-26T04:06:33;8.45;;;4.03;;
69463;SDS011;56665;41.106;16.688;2023-06-26T04:09:37;7.03;;;4.95;;
69463;SDS011;56665;41.106;16.688;2023-06-26T04:12:41;6.75;;;4.10;;
69463;SDS011;56665;41.106;16.688;2023-06-26T04:15:45;9.60;;;4.47;;
69463;SDS011;56665;41.106;16.688;2023-06-26T04:18:49;6.78;;;4.28;;
69463;SDS011;56665;41.106;16.688;2023-06-26T04:21:53;8.82;;;4.43;;
69463;SDS011;56665;41.106;16.688;2023-06-26T04:24:56;9.05;;;4.40;;
69463;SDS011;56665;41.106;16.688;2023-06-26T04:28:00;8.00;;;4.30;;
69463;SDS011;56665;41.106;16.688;2023-06-26T04:31:04;8.00;;;4.60;;
69463;SDS011;56665;41.106;16.688;2023-06-26T04:34:09;7.13;;;4.40;;
69463;SDS011;56665;41.106;16.688;2023-06-26T04:37:13;7.10;;;4.57;;
69463;SDS011;56665;41.106;16.688;2023-06-26T04:40:21;6.18;;;4.20;;
69463;SDS011;56665;41.106;16.688;2023-06-26T04:43:25;7.28;;;3.95;;
69463;SDS011;56665;41.106;16.688;2023-06-26T04:46:29;9.20;;;5.40;;
69463;SDS011;56665;41.106;16.688;2023-06-26T04:49:32;6.38;;;4.68;;
69463;SDS011;56665;41.106;16.688;2023-06-26T04:52:37;7.57;;;4.45;;
69463;SDS011;56665;41.106;16.688;2023-06-26T04:55:42;7.63;;;4.63;;
69463;SDS011;56665;41.106;16.688;2023-06-26T04:58:45;10.05;;;4.82;;
69463;SDS011;56665;41.106;16.688;2023-06-26T05:01:49;11.32;;;4.78;;
69463;SDS011;56665;41.106;16.688;2023-06-26T05:04:54;9.02;;;4.88;;
69463;SDS011;56665;41.106;16.688;2023-06-26T05:07:57;9.43;;;4.35;;
69463;SDS011;56665;41.106;16.688;2023-06-26T05:11:01;8.80;;;4.93;;
69463;SDS011;56665;41.106;16.688;2023-06-26T05:14:05;7.88;;;4.97;;
69463;SDS011;56665;41.106;16.688;2023-06-26T05:17:10;8.00;;;4.35;;
69463;SDS011;56665;41.106;16.688;2023-06-26T05:20:14;10.10;;;4.70;;
69463;SDS011;56665;41.106;16.688;2023-06-26T05:23:19;8.93;;;4.63;;
69463;SDS011;56665;41.106;16.688;2023-06-26T05:26:31;8.10;;;4.90;;
69463;SDS011;56665;41.106;16.688;2023-06-26T05:29:38;7.00;;;4.68;;
69463;SDS011;56665;41.106;16.688;2023-06-26T05:32:44;12.20;;;4.32;;
69463;SDS011;56665;41.106;16.688;2023-06-26T05:35:52;8.85;;;4.68;;
69463;SDS011;56665;41.106;16.688;2023-06-26T05:38:57;7.05;;;4.38;;
69463;SDS011;56665;41.106;16.688;2023-06-26T05:42:00;9.35;;;5.15;;
69463;SDS011;56665;41.106;16.688;2023-06-26T05:45:06;7.15;;;4.40;;
69463;SDS011;56665;41.106;16.688;2023-06-26T05:48:09;6.05;;;4.30;;
69463;SDS011;56665;41.106;16.688;2023-06-26T05:51:13;8.50;;;4.95;;
69463;SDS011;56665;41.106;16.688;2023-06-26T05:54:18;9.68;;;4.57;;
69463;SDS011;56665;41.106;16.688;2023-06-26T05:57:22;7.78;;;4.65;;
69463;SDS011;56665;41.106;16.688;2023-06-26T06:00:26;9.88;;;4.75;;
69463;SDS011;56665;41.106;16.688;2023-06-26T06:03:31;9.05;;;4.53;;
69463;SDS011;56665;41.106;16.688;2023-06-26T06:06:35;6.63;;;4.53;;
69463;SDS011;56665;41.106;16.688;2023-06-26T06:09:39;6.88;;;4.53;;
69463;SDS011;56665;41.106;16.688;2023-06-26T06:12:43;9.70;;;5.47;;
69463;SDS011;56665;41.106;16.688;2023-06-26T06:15:46;19.98;;;6.70;;
69463;SDS011;56665;41.106;16.688;2023-06-26T06:18:50;8.98;;;4.85;;
69463;SDS011;56665;41.106;16.688;2023-06-26T06:21:54;6.10;;;4.40;;
69463;SDS011;56665;41.106;16.688;2023-06-26T06:24:58;11.30;;;5.15;;
69463;SDS011;56665;41.106;16.688;2023-06-26T06:28:03;8.05;;;4.55;;
69463;SDS011;56665;41.106;16.688;2023-06-26T06:31:07;9.40;;;4.38;;
69463;SDS011;56665;41.106;16.688;2023-06-26T06:34:11;11.00;;;4.57;;
69463;SDS011;56665;41.106;16.688;2023-06-26T06:37:16;9.30;;;4.20;;
69463;SDS011;56665;41.106;16.688;2023-06-26T06:40:20;17.75;;;4.35;;
69463;SDS011;56665;41.106;16.688;2023-06-26T06:43:25;8.80;;;4.28;;
69463;SDS011;56665;41.106;16.688;2023-06-26T06:46:30;7.15;;;3.83;;
69463;SDS011;56665;41.106;16.688;2023-06-26T06:49:35;6.25;;;4.50;;
69463;SDS011;56665;41.106;16.688;2023-06-26T06:52:40;10.40;;;4.35;;
69463;SDS011;56665;41.106;16.688;2023-06-26T06:55:43;9.43;;;4.93;;
69463;SDS011;56665;41.106;16.688;2023-06-26T06:58:48;10.18;;;5.00;;
69463;SDS011;56665;41.106;16.688;2023-06-26T07:01:55;8.63;;;4.60;;
69463;SDS011;56665;41.106;16.688;2023-06-26T07:04:59;11.27;;;5.40;;
69463;SDS011;56665;41.106;16.688;2023-06-26T07:08:02;6.45;;;4.65;;
69463;SDS011;56665;41.106;16.688;2023-06-26T07:11:07;8.55;;;4.78;;
69463;SDS011;56665;41.106;16.688;2023-06-26T07:14:10;9.52;;;4.95;;
69463;SDS011;56665;41.106;16.688;2023-06-26T07:17:14;6.95;;;4.55;;
69463;SDS011;56665;41.106;16.688;2023-06-26T07:20:18;9.68;;;5.00;;
69463;SDS011;56665;41.106;16.688;2023-06-26T07:23:22;5.30;;;4.63;;
69463;SDS011;56665;41.106;16.688;2023-06-26T07:26:25;7.25;;;4.85;;
69463;SDS011;56665;41.106;16.688;2023-06-26T07:29:29;6.90;;;5.00;;
69463;SDS011;56665;41.106;16.688;2023-06-26T07:32:33;8.50;;;5.28;;
69463;SDS011;56665;41.106;16.688;2023-06-26T07:35:37;6.35;;;4.95;;
69463;SDS011;56665;41.106;16.688;2023-06-26T07:38:41;7.10;;;5.27;;
69463;SDS011;56665;41.106;16.688;2023-06-26T07:41:44;6.78;;;5.40;;
69463;SDS011;56665;41.106;16.688;2023-06-26T07:44:50;8.13;;;5.18;;
69463;SDS011;56665;41.106;16.688;2023-06-26T07:47:54;6.47;;;4.82;;
69463;SDS011;56665;41.106;16.688;2023-06-26T07:50:59;8.00;;;5.20;;
69463;SDS011;56665;41.106;16.688;2023-06-26T07:54:03;7.67;;;5.43;;
69463;SDS011;56665;41.106;16.688;2023-06-26T07:57:06;7.70;;;5.28;;
69463;SDS011;56665;41.106;16.688;2023-06-26T08:00:10;8.90;;;5.57;;
69463;SDS011;56665;41.106;16.688;2023-06-26T08:03:18;7.82;;;5.63;;
69463;SDS011;56665;41.106;16.688;2023-06-26T08:06:22;7.80;;;5.30;;
69463;SDS011;56665;41.106;16.688;2023-06-26T08:09:28;5.73;;;4.87;;
69463;SDS011;56665;41.106;16.688;2023-06-26T08:12:32;6.10;;;5.13;;
69463;SDS011;56665;41.106;16.688;2023-06-26T08:15:36;7.10;;;5.22;;
69463;SDS011;56665;41.106;16.688;2023-06-26T08:18:42;6.25;;;5.63;;
69463;SDS011;56665;41.106;16.688;2023-06-26T08:21:46;6.75;;;5.05;;
69463;SDS011;56665;41.106;16.688;2023-06-26T08:24:51;6.87;;;5.17;;
69463;SDS011;56665;41.106;16.688;2023-06-26T08:27:54;7.75;;;5.38;;
69463;SDS011;56665;41.106;16.688;2023-06-26T08:31:00;7.50;;;5.60;;
69463;SDS011;56665;41.106;16.688;2023-06-26T08:34:04;7.25;;;5.15;;
69463;SDS011;56665;41.106;16.688;2023-06-26T08:37:08;6.88;;;5.43;;
69463;SDS011;56665;41.106;16.688;2023-06-26T08:40:12;7.63;;;5.33;;
69463;SDS011;56665;41.106;16.688;2023-06-26T08:43:15;5.78;;;4.93;;
69463;SDS011;56665;41.106;16.688;2023-06-26T08:46:19;6.60;;;5.40;;
69463;SDS011;56665;41.106;16.688;2023-06-26T08:52:53;7.72;;;4.70;;
69463;SDS011;56665;41.106;16.688;2023-06-26T08:56:02;8.40;;;5.57;;
69463;SDS011;56665;41.106;16.688;2023-06-26T08:59:05;7.80;;;4.80;;
69463;SDS011;56665;41.106;16.688;2023-06-26T09:02:10;5.70;;;4.55;;
69463;SDS011;56665;41.106;16.688;2023-06-26T09:05:16;8.88;;;5.00;;
69463;SDS011;56665;41.106;16.688;2023-06-26T09:08:20;7.22;;;5.10;;
69463;SDS011;56665;41.106;16.688;2023-06-26T09:11:24;9.10;;;5.17;;
69463;SDS011;56665;41.106;16.688;2023-06-26T09:14:28;6.65;;;4.53;;
69463;SDS011;56665;41.106;16.688;2023-06-26T09:17:33;7.53;;;4.65;;
69463;SDS011;56665;41.106;16.688;2023-06-26T09:20:44;7.80;;;4.50;;
69463;SDS011;56665;41.106;16.688;2023-06-26T09:23:48;5.70;;;4.03;;
69463;SDS011;56665;41.106;16.688;2023-06-26T09:26:54;6.45;;;4.25;;
69463;SDS011;56665;41.106;16.688;2023-06-26T09:29:58;9.68;;;4.30;;
69463;SDS011;56665;41.106;16.688;2023-06-26T09:33:19;7.72;;;4.63;;
69463;SDS011;56665;41.106;16.688;2023-06-26T09:36:23;5.13;;;3.97;;
69463;SDS011;56665;41.106;16.688;2023-06-26T09:39:30;6.97;;;4.40;;
69463;SDS011;56665;41.106;16.688;2023-06-26T09:42:34;8.75;;;4.72;;
69463;SDS011;56665;41.106;16.688;2023-06-26T09:45:39;5.95;;;4.20;;
69463;SDS011;56665;41.106;16.688;2023-06-26T09:48:43;7.30;;;4.50;;
69463;SDS011;56665;41.106;16.688;2023-06-26T09:51:47;5.57;;;4.43;;
69463;SDS011;56665;41.106;16.688;2023-06-26T09:55:06;6.43;;;4.68;;
69463;SDS011;56665;41.106;16.688;2023-06-26T09:58:14;7.07;;;4.70;;
69463;SDS011;56665;41.106;16.688;2023-06-26T10:01:20;7.57;;;4.25;;
69463;SDS011;56665;41.106;16.688;2023-06-26T10:04:24;6.70;;;5.03;;
69463;SDS011;56665;41.106;16.688;2023-06-26T10:07:28;7.50;;;4.88;;
69463;SDS011;56665;41.106;16.688;2023-06-26T10:10:33;6.85;;;4.80;;
69463;SDS011;56665;41.106;16.688;2023-06-26T10:13:41;8.13;;;4.70;;
69463;SDS011;56665;41.106;16.688;2023-06-26T10:16:50;5.78;;;4.32;;
69463;SDS011;56665;41.106;16.688;2023-06-26T10:19:55;6.82;;;4.35;;
69463;SDS011;56665;41.106;16.688;2023-06-26T10:23:01;9.35;;;4.78;;
69463;SDS011;56665;41.106;16.688;2023-06-26T10:26:08;6.03;;;5.15;;
69463;SDS011;56665;41.106;16.688;2023-06-26T10:29:13;9.57;;;4.60;;
69463;SDS011;56665;41.106;16.688;2023-06-26T10:32:20;5.75;;;4.40;;
69463;SDS011;56665;41.106;16.688;2023-06-26T10:35:24;6.72;;;4.97;;
69463;SDS011;56665;41.106;16.688;2023-06-26T10:38:47;8.88;;;5.10;;
69463;SDS011;56665;41.106;16.688;2023-06-26T10:42:09;7.28;;;4.57;;
69463;SDS011;56665;41.106;16.688;2023-06-26T10:45:16;7.47;;;4.80;;
69463;SDS011;56665;41.106;16.688;2023-06-26T10:48:21;8.10;;;4.65;;
69463;SDS011;56665;41.106;16.688;2023-06-26T10:51:26;7.85;;;4.15;;
69463;SDS011;56665;41.106;16.688;2023-06-26T10:54:31;11.35;;;4.97;;
69463;SDS011;56665;41.106;16.688;2023-06-26T10:57:36;6.95;;;4.40;;
69463;SDS011;56665;41.106;16.688;2023-06-26T11:00:48;5.50;;;4.63;;
69463;SDS011;56665;41.106;16.688;2023-06-26T11:10:28;9.10;;;4.43;;
69463;SDS011;56665;41.106;16.688;2023-06-26T11:13:33;7.65;;;4.50;;
69463;SDS011;56665;41.106;16.688;2023-06-26T11:16:38;5.38;;;4.18;;
69463;SDS011;56665;41.106;16.688;2023-06-26T11:19:46;6.55;;;4.30;;
69463;SDS011;56665;41.106;16.688;2023-06-26T11:22:51;6.55;;;4.13;;
69463;SDS011;56665;41.106;16.688;2023-06-26T11:25:56;7.70;;;4.07;;
69463;SDS011;56665;41.106;16.688;2023-06-26T11:29:14;6.97;;;3.85;;
69463;SDS011;56665;41.106;16.688;2023-06-26T11:32:19;5.18;;;3.75;;
69463;SDS011;56665;41.106;16.688;2023-06-26T11:35:23;5.95;;;4.03;;
69463;SDS011;56665;41.106;16.688;2023-06-26T11:38:39;7.53;;;4.00;;
69463;SDS011;56665;41.106;16.688;2023-06-26T11:41:44;6.20;;;3.92;;
69463;SDS011;56665;41.106;16.688;2023-06-26T11:44:50;7.13;;;4.35;;
69463;SDS011;56665;41.106;16.688;2023-06-26T11:47:55;6.22;;;3.50;;
69463;SDS011;56665;41.106;16.688;2023-06-26T11:51:04;6.70;;;4.00;;
69463;SDS011;56665;41.106;16.688;2023-06-26T11:54:08;8.33;;;4.03;;
69463;SDS011;56665;41.106;16.688;2023-06-26T11:57:15;9.13;;;3.92;;
69463;SDS011;56665;41.106;16.688;2023-06-26T12:00:20;6.78;;;3.95;;
69463;SDS011;56665;41.106;16.688;2023-06-26T12:03:25;6.03;;;3.70;;
69463;SDS011;56665;41.106;16.688;2023-06-26T12:06:29;7.43;;;3.70;;
69463;SDS011;56665;41.106;16.688;2023-06-26T12:09:38;4.67;;;3.73;;
69463;SDS011;56665;41.106;16.688;2023-06-26T12:12:46;5.78;;;3.70;;
69463;SDS011;56665;41.106;16.688;2023-06-26T12:15:50;8.15;;;3.83;;
69463;SDS011;56665;41.106;16.688;2023-06-26T12:18:58;6.90;;;3.85;;
69463;SDS011;56665;41.106;16.688;2023-06-26T12:22:05;6.57;;;3.85;;
69463;SDS011;56665;41.106;16.688;2023-06-26T12:25:10;7.37;;;4.00;;
69463;SDS011;56665;41.106;16.688;2023-06-26T12:28:17;7.28;;;4.00;;
69463;SDS011;56665;41.106;16.688;2023-06-26T12:31:21;6.88;;;4.22;;
69463;SDS011;56665;41.106;16.688;2023-06-26T12:34:33;8.38;;;4.20;;
69463;SDS011;56665;41.106;16.688;2023-06-26T12:37:37;5.32;;;3.72;;
69463;SDS011;56665;41.106;16.688;2023-06-26T12:40:46;8.07;;;4.50;;
69463;SDS011;56665;41.106;16.688;2023-06-26T12:43:55;7.72;;;4.63;;
69463;SDS011;56665;41.106;16.688;2023-06-26T12:46:59;8.48;;;5.22;;
69463;SDS011;56665;41.106;16.688;2023-06-26T12:50:05;9.32;;;7.50;;
69463;SDS011;56665;41.106;16.688;2023-06-26T12:53:09;9.13;;;5.70;;
69463;SDS011;56665;41.106;16.688;2023-06-26T12:56:12;8.90;;;5.70;;
69463;SDS011;56665;41.106;16.688;2023-06-26T12:59:16;6.50;;;4.75;;
69463;SDS011;56665;41.106;16.688;2023-06-26T13:02:20;7.70;;;4.43;;
69463;SDS011;56665;41.106;16.688;2023-06-26T13:05:24;7.88;;;4.35;;
69463;SDS011;56665;41.106;16.688;2023-06-26T13:08:28;8.48;;;4.13;;
69463;SDS011;56665;41.106;16.688;2023-06-26T13:11:32;6.67;;;4.30;;
69463;SDS011;56665;41.106;16.688;2023-06-26T13:14:36;7.28;;;4.05;;
69463;SDS011;56665;41.106;16.688;2023-06-26T13:17:42;8.00;;;4.18;;
69463;SDS011;56665;41.106;16.688;2023-06-26T13:20:46;6.95;;;3.90;;
69463;SDS011;56665;41.106;16.688;2023-06-26T13:23:50;7.05;;;4.30;;
69463;SDS011;56665;41.106;16.688;2023-06-26T13:26:53;9.13;;;4.00;;
69463;SDS011;56665;41.106;16.688;2023-06-26T13:29:57;9.88;;;4.43;;
69463;SDS011;56665;41.106;16.688;2023-06-26T13:33:00;8.32;;;4.20;;
69463;SDS011;56665;41.106;16.688;2023-06-26T13:36:04;6.45;;;3.65;;
69463;SDS011;56665;41.106;16.688;2023-06-26T13:39:08;8.50;;;4.50;;
69463;SDS011;56665;41.106;16.688;2023-06-26T13:42:12;6.60;;;4.00;;
69463;SDS011;56665;41.106;16.688;2023-06-26T13:45:16;4.90;;;3.90;;
69463;SDS011;56665;41.106;16.688;2023-06-26T13:48:20;8.70;;;4.18;;
69463;SDS011;56665;41.106;16.688;2023-06-26T13:51:25;45.50;;;11.90;;
69463;SDS011;56665;41.106;16.688;2023-06-26T13:54:29;17.13;;;6.38;;
69463;SDS011;56665;41.106;16.688;2023-06-26T13:57:33;16.13;;;6.73;;
69463;SDS011;56665;41.106;16.688;2023-06-26T14:00:36;10.18;;;4.25;;
69463;SDS011;56665;41.106;16.688;2023-06-26T14:03:40;11.60;;;5.10;;
69463;SDS011;56665;41.106;16.688;2023-06-26T14:06:44;16.23;;;6.32;;
69463;SDS011;56665;41.106;16.688;2023-06-26T14:09:48;15.85;;;6.10;;
69463;SDS011;56665;41.106;16.688;2023-06-26T14:12:51;12.77;;;5.07;;
69463;SDS011;56665;41.106;16.688;2023-06-26T14:15:55;14.15;;;5.78;;
69463;SDS011;56665;41.106;16.688;2023-06-26T14:18:59;14.45;;;5.80;;
69463;SDS011;56665;41.106;16.688;2023-06-26T14:22:03;9.02;;;5.05;;
69463;SDS011;56665;41.106;16.688;2023-06-26T14:25:07;11.55;;;4.60;;
69463;SDS011;56665;41.106;16.688;2023-06-26T14:28:12;8.83;;;4.63;;
69463;SDS011;56665;41.106;16.688;2023-06-26T14:31:16;8.93;;;4.60;;
69463;SDS011;56665;41.106;16.688;2023-06-26T14:34:20;10.02;;;4.28;;
69463;SDS011;56665;41.106;16.688;2023-06-26T14:37:24;9.07;;;5.13;;
69463;SDS011;56665;41.106;16.688;2023-06-26T14:40:28;14.82;;;6.32;;
69463;SDS011;56665;41.106;16.688;2023-06-26T14:43:32;10.57;;;4.70;;
69463;SDS011;56665;41.106;16.688;2023-06-26T14:46:36;7.47;;;4.45;;
69463;SDS011;56665;41.106;16.688;2023-06-26T14:49:40;10.23;;;5.15;;
69463;SDS011;56665;41.106;16.688;2023-06-26T14:52:43;8.63;;;4.50;;
69463;SDS011;56665;41.106;16.688;2023-06-26T14:55:47;8.73;;;4.80;;
69463;SDS011;56665;41.106;16.688;2023-06-26T14:58:51;10.47;;;5.37;;
69463;SDS011;56665;41.106;16.688;2023-06-26T15:01:55;9.90;;;4.93;;
69463;SDS011;56665;41.106;16.688;2023-06-26T15:04:59;12.02;;;5.68;;
69463;SDS011;56665;41.106;16.688;2023-06-26T15:08:03;10.15;;;5.13;;
69463;SDS011;56665;41.106;16.688;2023-06-26T15:11:07;9.88;;;4.93;;
69463;SDS011;56665;41.106;16.688;2023-06-26T15:14:10;9.00;;;4.73;;
69463;SDS011;56665;41.106;16.688;2023-06-26T15:17:14;10.50;;;4.60;;
69463;SDS011;56665;41.106;16.688;2023-06-26T15:20:18;9.57;;;5.20;;
69463;SDS011;56665;41.106;16.688;2023-06-26T15:23:21;8.80;;;4.82;;
69463;SDS011;56665;41.106;16.688;2023-06-26T15:26:25;8.05;;;4.57;;
69463;SDS011;56665;41.106;16.688;2023-06-26T15:29:29;8.20;;;5.07;;
69463;SDS011;56665;41.106;16.688;2023-06-26T15:32:33;11.52;;;4.85;;
69463;SDS011;56665;41.106;16.688;2023-06-26T15:35:36;8.50;;;4.72;;
69463;SDS011;56665;41.106;16.688;2023-06-26T15:38:40;9.20;;;4.50;;
69463;SDS011;56665;41.106;16.688;2023-06-26T15:41:44;11.15;;;4.88;;
69463;SDS011;56665;41.106;16.688;2023-06-26T15:44:48;10.57;;;4.67;;
69463;SDS011;56665;41.106;16.688;2023-06-26T15:47:52;8.43;;;4.65;;
69463;SDS011;56665;41.106;16.688;2023-06-26T15:50:56;9.43;;;5.03;;
69463;SDS011;56665;41.106;16.688;2023-06-26T15:54:00;11.93;;;5.55;;
69463;SDS011;56665;41.106;16.688;2023-06-26T15:57:03;8.93;;;5.25;;
69463;SDS011;56665;41.106;16.688;2023-06-26T16:00:07;11.23;;;5.00;;
69463;SDS011;56665;41.106;16.688;2023-06-26T16:03:18;11.07;;;5.35;;
69463;SDS011;56665;41.106;16.688;2023-06-26T16:06:22;10.88;;;5.22;;
69463;SDS011;56665;41.106;16.688;2023-06-26T16:09:27;9.27;;;5.07;;
69463;SDS011;56665;41.106;16.688;2023-06-26T16:12:31;10.70;;;5.10;;
69463;SDS011;56665;41.106;16.688;2023-06-26T16:15:34;8.10;;;4.93;;
69463;SDS011;56665;41.106;16.688;2023-06-26T16:18:38;8.38;;;4.55;;
69463;SDS011;56665;41.106;16.688;2023-06-26T16:21:42;10.30;;;4.82;;
69463;SDS011;56665;41.106;16.688;2023-06-26T16:24:46;13.40;;;5.50;;
69463;SDS011;56665;41.106;16.688;2023-06-26T16:27:50;8.98;;;4.80;;
69463;SDS011;56665;41.106;16.688;2023-06-26T16:30:54;11.83;;;4.40;;
69463;SDS011;56665;41.106;16.688;2023-06-26T16:33:58;11.07;;;4.72;;
69463;SDS011;56665;41.106;16.688;2023-06-26T16:37:02;9.90;;;4.60;;
69463;SDS011;56665;41.106;16.688;2023-06-26T16:40:10;9.90;;;4.45;;
69463;SDS011;56665;41.106;16.688;2023-06-26T16:43:14;8.57;;;4.85;;
69463;SDS011;56665;41.106;16.688;2023-06-26T16:46:17;12.53;;;4.63;;
69463;SDS011;56665;41.106;16.688;2023-06-26T16:49:22;7.10;;;4.32;;
69463;SDS011;56665;41.106;16.688;2023-06-26T16:52:26;9.88;;;4.10;;
69463;SDS011;56665;41.106;16.688;2023-06-26T16:55:30;5.75;;;4.10;;
69463;SDS011;56665;41.106;16.688;2023-06-26T16:58:34;10.57;;;4.68;;
69463;SDS011;56665;41.106;16.688;2023-06-26T17:01:37;7.43;;;3.70;;
69463;SDS011;56665;41.106;16.688;2023-06-26T17:04:40;8.85;;;4.20;;
69463;SDS011;56665;41.106;16.688;2023-06-26T17:07:44;7.90;;;3.88;;
69463;SDS011;56665;41.106;16.688;2023-06-26T17:10:48;7.18;;;4.07;;
69463;SDS011;56665;41.106;16.688;2023-06-26T17:13:52;6.30;;;3.47;;
69463;SDS011;56665;41.106;16.688;2023-06-26T17:16:56;10.50;;;3.80;;
69463;SDS011;56665;41.106;16.688;2023-06-26T17:20:01;6.95;;;3.92;;
69463;SDS011;56665;41.106;16.688;2023-06-26T17:23:06;8.85;;;3.95;;
69463;SDS011;56665;41.106;16.688;2023-06-26T17:26:10;8.77;;;3.80;;
69463;SDS011;56665;41.106;16.688;2023-06-26T17:29:13;10.70;;;4.30;;
69463;SDS011;56665;41.106;16.688;2023-06-26T17:32:17;5.27;;;3.33;;
69463;SDS011;56665;41.106;16.688;2023-06-26T17:35:21;6.57;;;3.40;;
69463;SDS011;56665;41.106;16.688;2023-06-26T17:38:26;8.98;;;3.50;;
69463;SDS011;56665;41.106;16.688;2023-06-26T17:41:30;7.47;;;3.65;;
69463;SDS011;56665;41.106;16.688;2023-06-26T17:44:34;6.75;;;3.60;;
69463;SDS011;56665;41.106;16.688;2023-06-26T17:47:39;6.63;;;3.60;;
69463;SDS011;56665;41.106;16.688;2023-06-26T17:50:44;5.90;;;3.45;;
69463;SDS011;56665;41.106;16.688;2023-06-26T17:53:48;7.45;;;3.55;;
69463;SDS011;56665;41.106;16.688;2023-06-26T17:56:54;7.93;;;3.53;;
69463;SDS011;56665;41.106;16.688;2023-06-26T17:59:58;6.15;;;3.50;;
69463;SDS011;56665;41.106;16.688;2023-06-26T18:03:02;6.40;;;3.50;;
69463;SDS011;56665;41.106;16.688;2023-06-26T18:06:06;6.45;;;3.80;;
69463;SDS011;56665;41.106;16.688;2023-06-26T18:09:10;6.53;;;3.85;;
69463;SDS011;56665;41.106;16.688;2023-06-26T18:12:14;8.93;;;3.63;;
69463;SDS011;56665;41.106;16.688;2023-06-26T18:15:19;7.45;;;3.35;;
69463;SDS011;56665;41.106;16.688;2023-06-26T18:18:22;8.30;;;3.70;;
69463;SDS011;56665;41.106;16.688;2023-06-26T18:21:26;7.45;;;3.70;;
69463;SDS011;56665;41.106;16.688;2023-06-26T18:24:30;7.97;;;3.78;;
69463;SDS011;56665;41.106;16.688;2023-06-26T18:27:34;10.07;;;4.38;;
69463;SDS011;56665;41.106;16.688;2023-06-26T18:30:38;7.07;;;3.83;;
69463;SDS011;56665;41.106;16.688;2023-06-26T18:33:42;6.33;;;3.90;;